createdAt,value
2022-08-25T00:00:45.778Z,16.55
2022-08-25T00:03:48.936Z,16.33
2022-08-25T00:06:52.865Z,20.85
2022-08-25T00:09:55.663Z,18.80
2022-08-25T00:12:59.616Z,20.38
2022-08-25T00:16:02.306Z,20.17
2022-08-25T00:19:06.993Z,19.60
2022-08-25T00:22:09.561Z,19.48
2022-08-25T00:25:12.547Z,18.85
2022-08-25T00:28:16.725Z,20.33
2022-08-25T00:31:20.347Z,20.23
2022-08-25T00:34:24.420Z,20.38
2022-08-25T00:37:27.407Z,21.38
2022-08-25T00:40:30.237Z,20.95
2022-08-25T00:43:37.990Z,21.08
2022-08-25T00:46:42.630Z,20.83
2022-08-25T00:49:47.585Z,19.92
2022-08-25T00:52:51.828Z,20.88
2022-08-25T00:55:54.583Z,19.52
2022-08-25T00:58:58.657Z,21.38
2022-08-25T01:02:01.356Z,20.77
2022-08-25T01:05:04.230Z,21.92
2022-08-25T01:08:07.502Z,22.73
2022-08-25T01:11:10.948Z,22.67
2022-08-25T01:14:15.784Z,22.40
2022-08-25T01:17:18.371Z,21.00
2022-08-25T01:20:22.028Z,22.10
2022-08-25T01:23:26.198Z,21.80
2022-08-25T01:26:30.663Z,22.48
2022-08-25T01:29:33.707Z,21.00
2022-08-25T01:32:36.357Z,21.38
2022-08-25T01:35:39.043Z,22.10
2022-08-25T01:38:43.000Z,20.05
2022-08-25T01:42:00.796Z,20.00
2022-08-25T01:45:03.458Z,19.65
2022-08-25T01:48:06.780Z,19.67
2022-08-25T01:51:09.419Z,21.05
2022-08-25T01:54:13.401Z,19.30
2022-08-25T01:57:16.131Z,20.10
2022-08-25T02:00:18.888Z,18.85
2022-08-25T02:03:21.765Z,19.85
2022-08-25T02:06:29.835Z,20.70
2022-08-25T02:09:34.185Z,19.60
2022-08-25T02:12:36.847Z,18.40
2022-08-25T02:15:41.601Z,17.95
2022-08-25T02:18:45.703Z,19.48
2022-08-25T02:21:48.345Z,18.38
2022-08-25T02:24:52.330Z,17.63
2022-08-25T02:27:54.972Z,15.52
2022-08-25T02:31:00.161Z,16.65
2022-08-25T02:37:07.033Z,16.23
2022-08-25T02:40:12.578Z,17.08
2022-08-25T02:43:17.025Z,15.02
2022-08-25T02:46:20.868Z,14.20
2022-08-25T02:49:24.178Z,15.45
2022-08-25T02:52:26.887Z,14.85
2022-08-25T02:55:30.924Z,14.80
2022-08-25T02:58:37.546Z,14.85
2022-08-25T03:01:40.209Z,14.85
2022-08-25T03:04:42.934Z,14.63
2022-08-25T03:07:45.613Z,15.32
2022-08-25T03:10:49.582Z,14.82
2022-08-25T03:13:54.882Z,15.00
2022-08-25T03:16:57.570Z,14.73
2022-08-25T03:20:00.211Z,13.35
2022-08-25T03:23:03.328Z,13.65
2022-08-25T03:26:25.009Z,13.73
2022-08-25T03:29:28.480Z,13.30
2022-08-25T03:32:31.314Z,13.48
2022-08-25T03:35:33.932Z,14.20
2022-08-25T03:38:38.175Z,13.80
2022-08-25T03:41:42.163Z,12.55
2022-08-25T03:44:44.909Z,13.43
2022-08-25T03:47:47.852Z,12.98
2022-08-25T03:50:52.141Z,12.63
2022-08-25T03:53:55.045Z,13.90
2022-08-25T03:56:58.991Z,12.25
2022-08-25T04:00:01.637Z,13.90
2022-08-25T04:03:04.362Z,12.65
2022-08-25T04:06:07.614Z,12.52
2022-08-25T04:09:10.454Z,14.52
2022-08-25T04:12:14.458Z,11.18
2022-08-25T04:15:17.372Z,12.32
2022-08-25T04:18:22.403Z,11.10
2022-08-25T04:21:25.751Z,11.18
2022-08-25T04:24:28.786Z,12.38
2022-08-25T04:27:32.819Z,12.95
2022-08-25T04:30:35.488Z,11.93
2022-08-25T04:33:41.680Z,11.32
2022-08-25T04:36:44.377Z,11.73
2022-08-25T04:39:47.290Z,12.25
2022-08-25T04:42:51.325Z,12.38
2022-08-25T04:45:54.106Z,12.10
2022-08-25T04:48:57.260Z,12.38
2022-08-25T04:52:00.105Z,11.90
2022-08-25T04:55:02.727Z,11.82
2022-08-25T04:58:06.838Z,11.25
2022-08-25T05:01:18.315Z,10.93
2022-08-25T05:04:28.483Z,10.57
2022-08-25T05:07:31.677Z,11.68
2022-08-25T05:10:34.693Z,11.02
2022-08-25T05:13:38.795Z,12.23
2022-08-25T05:16:41.917Z,11.85
2022-08-25T05:19:45.000Z,11.02
2022-08-25T05:22:48.029Z,10.32
2022-08-25T05:25:50.925Z,11.13
2022-08-25T05:28:55.695Z,10.38
2022-08-25T05:31:58.363Z,10.48
2022-08-25T05:35:02.821Z,10.10
2022-08-25T05:38:05.654Z,9.77
2022-08-25T05:41:10.192Z,11.50
2022-08-25T05:44:17.923Z,9.52
2022-08-25T05:47:23.095Z,10.07
2022-08-25T05:50:25.763Z,9.55
2022-08-25T05:53:28.516Z,9.48
2022-08-25T05:56:33.751Z,10.40
2022-08-25T05:59:37.698Z,10.40
2022-08-25T06:02:44.115Z,10.88
2022-08-25T06:05:46.695Z,10.13
2022-08-25T06:08:49.289Z,10.15
2022-08-25T06:11:54.973Z,11.25
2022-08-25T06:14:59.294Z,10.93
2022-08-25T06:18:03.459Z,10.98
2022-08-25T06:21:11.189Z,11.63
2022-08-25T06:24:15.668Z,11.18
2022-08-25T06:27:18.728Z,11.52
2022-08-25T06:30:24.500Z,12.07
2022-08-25T06:33:31.365Z,10.85
2022-08-25T06:36:34.536Z,10.80
2022-08-25T06:39:37.134Z,11.73
2022-08-25T06:42:39.736Z,11.85
2022-08-25T06:45:44.085Z,13.05
2022-08-25T06:48:46.686Z,12.23
2022-08-25T06:51:49.543Z,12.10
2022-08-25T06:54:53.105Z,12.00
2022-08-25T06:57:56.056Z,11.52
2022-08-25T07:01:13.463Z,11.60
2022-08-25T07:04:18.476Z,11.32
2022-08-25T07:07:21.276Z,10.52
2022-08-25T07:10:24.009Z,9.98
2022-08-25T07:13:27.131Z,10.73
2022-08-25T07:16:31.423Z,12.13
2022-08-25T07:19:34.288Z,11.13
2022-08-25T07:22:36.904Z,12.50
2022-08-25T07:25:39.657Z,10.95
2022-08-25T07:28:47.130Z,10.98
2022-08-25T07:31:51.479Z,11.35
2022-08-25T07:35:11.939Z,9.90
2022-08-25T07:38:20.760Z,9.35
2022-08-25T07:41:23.536Z,9.95
2022-08-25T07:44:28.214Z,10.23
2022-08-25T07:47:33.096Z,9.80
2022-08-25T07:50:35.848Z,9.50
2022-08-25T07:53:38.471Z,9.55
2022-08-25T07:56:42.975Z,9.02
2022-08-25T07:59:46.994Z,9.15
2022-08-25T08:02:51.021Z,9.05
2022-08-25T08:05:56.473Z,8.73
2022-08-25T08:08:59.866Z,7.60
2022-08-25T08:12:02.561Z,7.47
2022-08-25T08:15:10.398Z,6.50
2022-08-25T08:18:15.820Z,6.32
2022-08-25T08:21:20.072Z,4.95
2022-08-25T08:24:40.861Z,3.90
2022-08-25T08:27:45.875Z,4.28
2022-08-25T08:30:53.459Z,4.10
2022-08-25T08:33:58.415Z,3.80
2022-08-25T08:37:01.209Z,3.40
2022-08-25T08:40:04.324Z,3.63
2022-08-25T08:43:13.276Z,3.83
2022-08-25T08:46:21.899Z,3.90
2022-08-25T08:49:28.849Z,3.65
2022-08-25T08:52:37.841Z,4.00
2022-08-25T08:55:41.434Z,3.13
2022-08-25T08:58:45.514Z,3.05
2022-08-25T09:01:59.015Z,4.00
2022-08-25T09:05:06.859Z,3.30
2022-08-25T09:08:11.379Z,3.70
2022-08-25T09:11:18.878Z,3.20
2022-08-25T09:14:42.009Z,3.58
2022-08-25T09:17:57.772Z,3.17
2022-08-25T09:21:09.391Z,2.72
2022-08-25T09:24:19.188Z,2.58
2022-08-25T09:27:25.188Z,2.05
2022-08-25T09:30:27.801Z,3.00
2022-08-25T09:33:31.456Z,2.35
2022-08-25T09:36:39.688Z,2.70
2022-08-25T09:39:42.361Z,2.33
2022-08-25T09:42:49.864Z,2.53
2022-08-25T09:45:59.033Z,2.72
2022-08-25T09:49:12.220Z,2.08
2022-08-25T09:52:31.869Z,1.88
2022-08-25T09:55:34.536Z,2.03
2022-08-25T09:58:38.027Z,2.75
2022-08-25T10:01:48.746Z,1.98
2022-08-25T10:04:53.841Z,2.05
2022-08-25T10:07:59.090Z,2.53
2022-08-25T10:11:04.984Z,2.03
2022-08-25T10:14:20.715Z,1.95
2022-08-25T10:17:27.662Z,2.47
2022-08-25T10:20:35.039Z,2.20
2022-08-25T10:23:44.573Z,2.42
2022-08-25T10:26:53.075Z,2.08
2022-08-25T10:30:08.477Z,2.17
2022-08-25T10:33:14.489Z,2.30
2022-08-25T10:36:22.732Z,2.10
2022-08-25T10:39:36.490Z,2.33
2022-08-25T10:42:42.768Z,2.15
2022-08-25T10:45:49.705Z,1.95
2022-08-25T10:48:59.309Z,1.77
2022-08-25T10:52:03.037Z,2.47
2022-08-25T10:55:09.050Z,2.13
2022-08-25T10:58:16.188Z,1.75
2022-08-25T11:01:21.189Z,2.58
2022-08-25T11:04:33.775Z,2.70
2022-08-25T11:07:41.098Z,2.95
2022-08-25T11:10:47.895Z,2.25
2022-08-25T11:13:53.334Z,2.45
2022-08-25T11:16:58.571Z,2.67
2022-08-25T11:20:05.932Z,1.60
2022-08-25T11:23:11.346Z,1.85
2022-08-25T11:26:16.324Z,2.30
2022-08-25T11:29:19.540Z,1.88
2022-08-25T11:32:24.702Z,1.85
2022-08-25T11:35:29.117Z,1.63
2022-08-25T11:38:41.512Z,1.95
2022-08-25T11:41:53.936Z,1.60
2022-08-25T11:45:02.354Z,2.10
2022-08-25T11:48:13.012Z,2.20
2022-08-25T11:51:31.032Z,2.13
2022-08-25T11:54:38.724Z,1.92
2022-08-25T11:57:49.565Z,1.85
2022-08-25T12:00:54.198Z,2.05
2022-08-25T12:04:13.351Z,1.65
2022-08-25T12:07:20.746Z,2.40
2022-08-25T12:10:25.042Z,2.20
2022-08-25T12:13:47.401Z,2.13
2022-08-25T12:17:07.518Z,2.60
2022-08-25T12:20:15.964Z,2.10
2022-08-25T12:23:18.574Z,2.20
2022-08-25T12:26:25.820Z,2.28
2022-08-25T12:29:38.807Z,2.60
2022-08-25T12:33:01.280Z,2.33
2022-08-25T12:36:05.247Z,2.10
2022-08-25T12:39:19.168Z,2.30
2022-08-25T12:42:31.201Z,2.55
2022-08-25T12:45:38.616Z,2.92
2022-08-25T12:48:55.803Z,2.70
2022-08-25T12:52:01.035Z,2.90
2022-08-25T12:55:06.092Z,3.03
2022-08-25T12:58:08.781Z,3.30
2022-08-25T13:01:17.477Z,2.90
2022-08-25T13:04:55.071Z,3.50
2022-08-25T13:08:03.243Z,3.58
2022-08-25T13:11:10.258Z,3.40
2022-08-25T13:14:18.048Z,3.00
2022-08-25T13:17:27.366Z,2.65
2022-08-25T13:20:31.639Z,3.10
2022-08-25T13:23:39.229Z,2.45
2022-08-25T13:26:48.122Z,2.60
2022-08-25T13:29:52.734Z,3.28
2022-08-25T13:32:56.854Z,2.92
2022-08-25T13:36:17.879Z,3.25
2022-08-25T13:39:45.695Z,3.08
2022-08-25T13:42:50.876Z,3.00
2022-08-25T13:45:57.603Z,2.78
2022-08-25T13:49:05.577Z,2.65
2022-08-25T13:52:08.651Z,3.00
2022-08-25T13:55:11.348Z,2.80
2022-08-25T13:58:15.417Z,3.85
2022-08-25T14:01:47.650Z,5.82
2022-08-25T14:04:52.749Z,7.50
2022-08-25T14:08:03.811Z,5.82
2022-08-25T14:11:29.155Z,4.50
2022-08-25T14:14:34.925Z,4.20
2022-08-25T14:17:40.150Z,4.40
2022-08-25T14:20:47.348Z,3.95
2022-08-25T14:23:49.908Z,4.30
2022-08-25T14:26:53.855Z,4.28
2022-08-25T14:29:57.763Z,5.20
2022-08-25T14:33:00.335Z,7.45
2022-08-25T14:36:04.970Z,6.82
2022-08-25T14:39:08.897Z,6.57
2022-08-25T14:42:11.760Z,9.57
2022-08-25T14:45:14.851Z,8.77
2022-08-25T14:48:25.271Z,10.90
2022-08-25T14:51:29.968Z,14.02
2022-08-25T14:54:35.866Z,11.65
2022-08-25T14:57:40.176Z,12.57
2022-08-25T15:00:44.624Z,10.75
2022-08-25T15:03:48.520Z,14.43
2022-08-25T15:06:54.935Z,17.25
2022-08-25T15:09:56.556Z,15.10
2022-08-25T15:12:59.177Z,16.35
2022-08-25T15:16:01.907Z,15.95
2022-08-25T15:19:06.795Z,17.35
2022-08-25T15:22:10.963Z,16.65
2022-08-25T15:25:13.559Z,17.40
2022-08-25T15:28:17.077Z,20.08
2022-08-25T15:31:20.827Z,16.80
2022-08-25T15:34:23.496Z,17.05
2022-08-25T15:37:27.986Z,14.90
2022-08-25T15:40:31.585Z,18.10
2022-08-25T15:43:34.825Z,17.30
2022-08-25T15:46:39.354Z,16.83
2022-08-25T15:49:44.173Z,15.85
2022-08-25T15:52:49.383Z,16.30
2022-08-25T15:55:52.359Z,17.85
2022-08-25T15:58:56.799Z,18.65
2022-08-25T16:01:59.544Z,17.35
2022-08-25T16:05:02.409Z,18.75
2022-08-25T16:08:06.622Z,15.18
2022-08-25T16:11:24.444Z,13.55
2022-08-25T16:14:27.657Z,15.90
2022-08-25T16:17:30.659Z,11.27
2022-08-25T16:20:34.223Z,14.05
2022-08-25T16:23:38.261Z,11.00
2022-08-25T16:26:48.139Z,12.68
2022-08-25T16:29:52.389Z,11.43
2022-08-25T16:32:55.080Z,12.50
2022-08-25T16:36:06.602Z,11.13
2022-08-25T16:39:11.900Z,10.75
2022-08-25T16:42:14.503Z,11.88
2022-08-25T16:45:18.259Z,10.32
2022-08-25T16:48:20.888Z,12.38
2022-08-25T16:51:25.545Z,11.23
2022-08-25T16:54:50.988Z,11.27
2022-08-25T16:57:55.283Z,10.65
2022-08-25T17:00:59.347Z,11.73
2022-08-25T17:04:02.014Z,10.98
2022-08-25T17:07:04.997Z,7.20
2022-08-25T17:10:12.558Z,7.20
2022-08-25T17:13:15.712Z,8.10
2022-08-25T17:16:18.602Z,8.20
2022-08-25T17:19:24.809Z,8.73
2022-08-25T17:22:27.420Z,7.07
2022-08-25T17:25:31.403Z,8.38
2022-08-25T17:28:34.086Z,8.25
2022-08-25T17:31:39.732Z,6.22
2022-08-25T17:34:42.721Z,6.30
2022-08-25T17:37:45.364Z,5.75
2022-08-25T17:40:55.068Z,5.35
2022-08-25T17:43:58.687Z,4.68
2022-08-25T17:47:01.423Z,4.97
2022-08-25T17:50:05.162Z,4.35
2022-08-25T17:53:09.454Z,3.25
2022-08-25T17:56:15.054Z,4.18
2022-08-25T17:59:18.803Z,3.22
2022-08-25T18:02:22.260Z,3.70
2022-08-25T18:05:25.102Z,4.28
2022-08-25T18:08:34.804Z,3.67
2022-08-25T18:11:39.266Z,3.63
2022-08-25T18:14:41.917Z,4.05
2022-08-25T18:17:48.713Z,3.40
2022-08-25T18:20:52.091Z,3.97
2022-08-25T18:23:55.816Z,4.00
2022-08-25T18:26:59.878Z,4.13
2022-08-25T18:30:02.538Z,3.97
2022-08-25T18:33:06.151Z,4.30
2022-08-25T18:36:08.791Z,4.15
2022-08-25T18:39:34.599Z,4.80
2022-08-25T18:42:38.960Z,5.40
2022-08-25T18:45:47.768Z,5.82
2022-08-25T18:48:52.668Z,6.53
2022-08-25T18:51:55.796Z,5.47
2022-08-25T18:55:00.269Z,5.15
2022-08-25T18:58:05.973Z,5.07
2022-08-25T19:01:09.472Z,5.68
2022-08-25T19:04:15.185Z,4.80
2022-08-25T19:07:19.446Z,5.65
2022-08-25T19:10:24.083Z,6.00
2022-08-25T19:13:28.933Z,4.63
2022-08-25T19:16:34.393Z,5.65
2022-08-25T19:19:37.071Z,4.32
2022-08-25T19:22:41.965Z,4.13
2022-08-25T19:25:44.941Z,3.67
2022-08-25T19:28:50.823Z,3.67
2022-08-25T19:31:53.612Z,3.80
2022-08-25T19:34:56.413Z,3.92
2022-08-25T19:37:59.945Z,4.45
2022-08-25T19:41:10.427Z,4.30
2022-08-25T19:44:18.631Z,4.55
2022-08-25T19:47:21.303Z,3.92
2022-08-25T19:50:24.114Z,4.07
2022-08-25T19:53:26.922Z,4.15
2022-08-25T19:56:29.791Z,4.00
2022-08-25T19:59:42.539Z,4.20
2022-08-25T20:02:47.046Z,3.88
2022-08-25T20:05:51.860Z,4.18
2022-08-25T20:08:59.068Z,2.92
2022-08-25T20:12:03.704Z,2.58
2022-08-25T20:15:11.599Z,2.10
2022-08-25T20:18:14.480Z,1.48
2022-08-25T20:21:17.139Z,1.70
2022-08-25T20:24:37.502Z,1.45
2022-08-25T20:27:42.012Z,1.77
2022-08-25T20:30:46.106Z,1.65
2022-08-25T20:33:48.907Z,1.20
2022-08-25T20:36:52.897Z,1.70
2022-08-25T20:39:55.857Z,1.75
2022-08-25T20:43:01.911Z,1.50
2022-08-25T20:46:07.421Z,2.22
2022-08-25T20:49:10.079Z,1.50
2022-08-25T20:52:12.800Z,1.55
2022-08-25T20:55:18.949Z,1.60
2022-08-25T20:58:21.804Z,1.30
2022-08-25T21:01:37.705Z,1.88
2022-08-25T21:04:48.959Z,1.27
2022-08-25T21:07:53.003Z,1.58
2022-08-25T21:10:55.695Z,1.23
2022-08-25T21:13:59.044Z,1.40
2022-08-25T21:17:03.501Z,1.33
2022-08-25T21:20:07.287Z,1.25
2022-08-25T21:23:10.508Z,1.17
2022-08-25T21:26:14.721Z,1.52
2022-08-25T21:29:17.559Z,1.25
2022-08-25T21:32:21.931Z,1.38
2022-08-25T21:35:24.846Z,0.93
2022-08-25T21:38:28.966Z,1.25
2022-08-25T21:41:32.993Z,1.58
2022-08-25T21:44:35.737Z,1.67
2022-08-25T21:47:42.351Z,1.17
2022-08-25T21:50:45.231Z,1.10
2022-08-25T21:53:47.880Z,1.30
2022-08-25T21:56:51.425Z,1.10
2022-08-25T21:59:54.292Z,1.15
2022-08-25T22:03:00.024Z,1.73
2022-08-25T22:06:03.698Z,1.25
2022-08-25T22:09:07.425Z,1.73
2022-08-25T22:12:11.052Z,1.08
2022-08-25T22:15:14.545Z,1.40
2022-08-25T22:18:18.612Z,1.13
2022-08-25T22:21:22.047Z,1.15
2022-08-25T22:24:28.050Z,1.33
2022-08-25T22:27:31.848Z,1.08
2022-08-25T22:30:34.696Z,1.30
2022-08-25T22:33:41.839Z,0.90
2022-08-25T22:36:44.820Z,0.80
2022-08-25T22:39:49.885Z,1.10
2022-08-25T22:42:53.310Z,1.08
2022-08-25T22:46:01.286Z,0.80
2022-08-25T22:49:06.571Z,1.00
2022-08-25T22:52:12.750Z,0.75
2022-08-25T22:55:16.374Z,0.75
2022-08-25T22:58:19.141Z,1.10
2022-08-25T23:01:21.887Z,1.30
2022-08-25T23:04:25.977Z,1.02
2022-08-25T23:07:28.752Z,1.10
2022-08-25T23:10:32.458Z,0.95
2022-08-25T23:13:35.407Z,1.13
2022-08-25T23:16:41.724Z,1.15
2022-08-25T23:19:46.116Z,0.82
2022-08-25T23:22:50.077Z,0.88
2022-08-25T23:25:56.237Z,1.25
2022-08-25T23:28:59.104Z,1.40
2022-08-25T23:32:01.940Z,0.75
2022-08-25T23:35:07.421Z,0.95
2022-08-25T23:38:11.180Z,0.60
2022-08-25T23:41:17.597Z,1.23
2022-08-25T23:44:20.280Z,1.00
2022-08-25T23:47:23.092Z,1.13
2022-08-25T23:50:28.312Z,0.80
2022-08-25T23:53:31.200Z,1.05
2022-08-25T23:56:34.735Z,1.13
2022-08-25T23:59:38.380Z,0.75
